sensor_id;sensor_type;location;lat;lon;timestamp;P1;durP1;ratioP1;P2;durP2;ratioP2
30000;SDS011;16845;48.670;9.000;2022-10-17T00:00:30;4.95;;;2.03;;
30000;SDS011;16845;48.670;9.000;2022-10-17T00:02:59;11.88;;;2.42;;
30000;SDS011;16845;48.670;9.000;2022-10-17T00:05:28;4.03;;;2.13;;
30000;SDS011;16845;48.670;9.000;2022-10-17T00:07:56;6.60;;;2.20;;
30000;SDS011;16845;48.670;9.000;2022-10-17T00:10:24;9.65;;;2.58;;
30000;SDS011;16845;48.670;9.000;2022-10-17T00:12:52;7.55;;;2.47;;
30000;SDS011;16845;48.670;9.000;2022-10-17T00:15:20;5.05;;;2.28;;
30000;SDS011;16845;48.670;9.000;2022-10-17T00:17:48;6.80;;;2.00;;
30000;SDS011;16845;48.670;9.000;2022-10-17T00:20:18;4.72;;;2.08;;
30000;SDS011;16845;48.670;9.000;2022-10-17T00:22:46;9.95;;;2.30;;
30000;SDS011;16845;48.670;9.000;2022-10-17T00:25:14;15.07;;;3.17;;
30000;SDS011;16845;48.670;9.000;2022-10-17T00:27:42;10.52;;;2.88;;
30000;SDS011;16845;48.670;9.000;2022-10-17T00:30:10;3.83;;;2.35;;
30000;SDS011;16845;48.670;9.000;2022-10-17T00:32:40;5.57;;;3.47;;
30000;SDS011;16845;48.670;9.000;2022-10-17T00:35:09;8.52;;;2.85;;
30000;SDS011;16845;48.670;9.000;2022-10-17T00:37:38;6.03;;;2.55;;
30000;SDS011;16845;48.670;9.000;2022-10-17T00:40:06;9.75;;;3.47;;
30000;SDS011;16845;48.670;9.000;2022-10-17T00:42:35;4.97;;;2.63;;
30000;SDS011;16845;48.670;9.000;2022-10-17T00:45:14;8.80;;;2.35;;
30000;SDS011;16845;48.670;9.000;2022-10-17T00:47:47;4.57;;;3.15;;
30000;SDS011;16845;48.670;9.000;2022-10-17T00:50:20;7.38;;;3.00;;
30000;SDS011;16845;48.670;9.000;2022-10-17T00:52:50;9.32;;;3.13;;
30000;SDS011;16845;48.670;9.000;2022-10-17T00:55:20;8.95;;;2.58;;
30000;SDS011;16845;48.670;9.000;2022-10-17T00:57:50;4.05;;;2.40;;
30000;SDS011;16845;48.670;9.000;2022-10-17T01:00:19;11.85;;;2.85;;
30000;SDS011;16845;48.670;9.000;2022-10-17T01:02:48;9.07;;;2.50;;
30000;SDS011;16845;48.670;9.000;2022-10-17T01:05:16;8.35;;;2.85;;
30000;SDS011;16845;48.670;9.000;2022-10-17T01:07:45;8.20;;;2.53;;
30000;SDS011;16845;48.670;9.000;2022-10-17T01:10:17;9.40;;;2.50;;
30000;SDS011;16845;48.670;9.000;2022-10-17T01:12:55;9.18;;;3.05;;
30000;SDS011;16845;48.670;9.000;2022-10-17T01:15:31;8.07;;;2.72;;
30000;SDS011;16845;48.670;9.000;2022-10-17T01:18:09;3.53;;;2.63;;
30000;SDS011;16845;48.670;9.000;2022-10-17T01:24:06;5.85;;;2.67;;
30000;SDS011;16845;48.670;9.000;2022-10-17T01:26:54;5.65;;;3.05;;
30000;SDS011;16845;48.670;9.000;2022-10-17T01:29:39;3.17;;;2.88;;
30000;SDS011;16845;48.670;9.000;2022-10-17T01:32:22;7.28;;;2.92;;
30000;SDS011;16845;48.670;9.000;2022-10-17T01:34:57;7.93;;;3.50;;
30000;SDS011;16845;48.670;9.000;2022-10-17T01:37:30;13.88;;;3.40;;
30000;SDS011;16845;48.670;9.000;2022-10-17T01:40:02;6.82;;;2.75;;
30000;SDS011;16845;48.670;9.000;2022-10-17T01:42:37;4.28;;;3.00;;
30000;SDS011;16845;48.670;9.000;2022-10-17T01:45:09;4.88;;;3.33;;
30000;SDS011;16845;48.670;9.000;2022-10-17T01:47:42;5.60;;;3.15;;
30000;SDS011;16845;48.670;9.000;2022-10-17T01:50:14;4.43;;;2.58;;
30000;SDS011;16845;48.670;9.000;2022-10-17T01:52:46;5.50;;;2.65;;
30000;SDS011;16845;48.670;9.000;2022-10-17T01:55:18;4.25;;;2.45;;
30000;SDS011;16845;48.670;9.000;2022-10-17T01:57:50;4.68;;;2.85;;
30000;SDS011;16845;48.670;9.000;2022-10-17T02:00:21;7.50;;;2.78;;
30000;SDS011;16845;48.670;9.000;2022-10-17T02:02:54;7.55;;;3.08;;
30000;SDS011;16845;48.670;9.000;2022-10-17T02:05:26;4.53;;;2.70;;
30000;SDS011;16845;48.670;9.000;2022-10-17T02:07:57;8.43;;;2.58;;
30000;SDS011;16845;48.670;9.000;2022-10-17T02:10:28;4.57;;;2.60;;
30000;SDS011;16845;48.670;9.000;2022-10-17T02:13:03;4.40;;;3.20;;
30000;SDS011;16845;48.670;9.000;2022-10-17T02:15:40;9.80;;;2.67;;
30000;SDS011;16845;48.670;9.000;2022-10-17T02:18:32;12.30;;;2.70;;
30000;SDS011;16845;48.670;9.000;2022-10-17T02:21:12;7.07;;;2.63;;
30000;SDS011;16845;48.670;9.000;2022-10-17T02:23:47;3.45;;;2.83;;
30000;SDS011;16845;48.670;9.000;2022-10-17T02:26:20;11.18;;;3.10;;
30000;SDS011;16845;48.670;9.000;2022-10-17T02:28:57;4.68;;;2.92;;
30000;SDS011;16845;48.670;9.000;2022-10-17T02:31:33;3.13;;;2.40;;
30000;SDS011;16845;48.670;9.000;2022-10-17T02:34:06;5.30;;;3.08;;
30000;SDS011;16845;48.670;9.000;2022-10-17T02:36:40;7.95;;;2.90;;
30000;SDS011;16845;48.670;9.000;2022-10-17T02:39:12;6.13;;;2.53;;
30000;SDS011;16845;48.670;9.000;2022-10-17T02:41:42;4.13;;;2.72;;
30000;SDS011;16845;48.670;9.000;2022-10-17T02:44:11;5.70;;;2.88;;
30000;SDS011;16845;48.670;9.000;2022-10-17T02:46:39;4.85;;;2.65;;
30000;SDS011;16845;48.670;9.000;2022-10-17T02:49:11;6.63;;;2.75;;
30000;SDS011;16845;48.670;9.000;2022-10-17T02:51:44;6.95;;;3.47;;
30000;SDS011;16845;48.670;9.000;2022-10-17T02:54:16;9.88;;;2.92;;
30000;SDS011;16845;48.670;9.000;2022-10-17T02:56:49;7.80;;;3.35;;
30000;SDS011;16845;48.670;9.000;2022-10-17T02:59:21;7.47;;;3.10;;
30000;SDS011;16845;48.670;9.000;2022-10-17T03:01:51;12.88;;;2.90;;
30000;SDS011;16845;48.670;9.000;2022-10-17T03:04:21;11.38;;;3.17;;
30000;SDS011;16845;48.670;9.000;2022-10-17T03:06:49;7.88;;;3.03;;
30000;SDS011;16845;48.670;9.000;2022-10-17T03:09:17;6.60;;;3.42;;
30000;SDS011;16845;48.670;9.000;2022-10-17T03:11:45;4.43;;;3.00;;
30000;SDS011;16845;48.670;9.000;2022-10-17T03:14:13;4.32;;;3.00;;
30000;SDS011;16845;48.670;9.000;2022-10-17T03:16:41;3.20;;;2.90;;
30000;SDS011;16845;48.670;9.000;2022-10-17T03:19:09;7.20;;;3.42;;
30000;SDS011;16845;48.670;9.000;2022-10-17T03:21:38;10.55;;;4.70;;
30000;SDS011;16845;48.670;9.000;2022-10-17T03:24:06;9.95;;;3.60;;
30000;SDS011;16845;48.670;9.000;2022-10-17T03:26:34;6.03;;;3.10;;
30000;SDS011;16845;48.670;9.000;2022-10-17T03:29:02;9.77;;;3.45;;
30000;SDS011;16845;48.670;9.000;2022-10-17T03:31:30;5.85;;;3.15;;
30000;SDS011;16845;48.670;9.000;2022-10-17T03:33:58;9.73;;;3.25;;
30000;SDS011;16845;48.670;9.000;2022-10-17T03:36:27;4.43;;;3.17;;
30000;SDS011;16845;48.670;9.000;2022-10-17T03:38:57;10.48;;;3.05;;
30000;SDS011;16845;48.670;9.000;2022-10-17T03:41:25;6.70;;;3.45;;
30000;SDS011;16845;48.670;9.000;2022-10-17T03:43:53;5.90;;;3.33;;
30000;SDS011;16845;48.670;9.000;2022-10-17T03:46:20;10.25;;;3.40;;
30000;SDS011;16845;48.670;9.000;2022-10-17T03:48:48;4.05;;;2.90;;
30000;SDS011;16845;48.670;9.000;2022-10-17T03:51:16;9.93;;;3.65;;
30000;SDS011;16845;48.670;9.000;2022-10-17T03:53:44;6.22;;;3.42;;
30000;SDS011;16845;48.670;9.000;2022-10-17T03:56:14;7.35;;;3.28;;
30000;SDS011;16845;48.670;9.000;2022-10-17T03:58:43;7.88;;;3.33;;
30000;SDS011;16845;48.670;9.000;2022-10-17T04:01:12;8.52;;;3.17;;
30000;SDS011;16845;48.670;9.000;2022-10-17T04:03:41;4.05;;;2.85;;
30000;SDS011;16845;48.670;9.000;2022-10-17T04:06:10;4.63;;;3.25;;
30000;SDS011;16845;48.670;9.000;2022-10-17T04:08:39;12.23;;;3.55;;
30000;SDS011;16845;48.670;9.000;2022-10-17T04:11:09;10.00;;;3.67;;
30000;SDS011;16845;48.670;9.000;2022-10-17T04:13:41;6.53;;;2.88;;
30000;SDS011;16845;48.670;9.000;2022-10-17T04:16:11;5.55;;;3.13;;
30000;SDS011;16845;48.670;9.000;2022-10-17T04:18:41;11.23;;;3.75;;
30000;SDS011;16845;48.670;9.000;2022-10-17T04:21:09;5.50;;;3.40;;
30000;SDS011;16845;48.670;9.000;2022-10-17T04:23:38;5.28;;;3.53;;
30000;SDS011;16845;48.670;9.000;2022-10-17T04:26:06;5.60;;;3.40;;
30000;SDS011;16845;48.670;9.000;2022-10-17T04:28:34;5.10;;;3.10;;
30000;SDS011;16845;48.670;9.000;2022-10-17T04:31:10;7.60;;;4.20;;
30000;SDS011;16845;48.670;9.000;2022-10-17T04:33:40;4.90;;;3.15;;
30000;SDS011;16845;48.670;9.000;2022-10-17T04:36:10;7.80;;;3.33;;
30000;SDS011;16845;48.670;9.000;2022-10-17T04:38:40;14.27;;;3.67;;
30000;SDS011;16845;48.670;9.000;2022-10-17T04:41:09;5.75;;;3.42;;
30000;SDS011;16845;48.670;9.000;2022-10-17T04:43:39;15.98;;;4.18;;
30000;SDS011;16845;48.670;9.000;2022-10-17T04:46:13;6.32;;;2.90;;
30000;SDS011;16845;48.670;9.000;2022-10-17T04:48:41;4.45;;;3.05;;
30000;SDS011;16845;48.670;9.000;2022-10-17T04:51:10;5.38;;;3.65;;
30000;SDS011;16845;48.670;9.000;2022-10-17T04:53:40;4.95;;;3.10;;
30000;SDS011;16845;48.670;9.000;2022-10-17T04:56:09;7.07;;;3.50;;
30000;SDS011;16845;48.670;9.000;2022-10-17T04:58:39;5.65;;;2.80;;
30000;SDS011;16845;48.670;9.000;2022-10-17T05:01:09;8.73;;;3.47;;
30000;SDS011;16845;48.670;9.000;2022-10-17T05:03:39;3.85;;;2.85;;
30000;SDS011;16845;48.670;9.000;2022-10-17T05:06:08;5.82;;;2.92;;
30000;SDS011;16845;48.670;9.000;2022-10-17T05:08:37;7.00;;;3.08;;
30000;SDS011;16845;48.670;9.000;2022-10-17T05:11:13;12.35;;;3.20;;
30000;SDS011;16845;48.670;9.000;2022-10-17T05:13:48;8.38;;;2.78;;
30000;SDS011;16845;48.670;9.000;2022-10-17T05:16:17;8.25;;;3.42;;
30000;SDS011;16845;48.670;9.000;2022-10-17T05:18:48;7.55;;;3.22;;
30000;SDS011;16845;48.670;9.000;2022-10-17T05:21:18;8.57;;;3.13;;
30000;SDS011;16845;48.670;9.000;2022-10-17T05:23:47;6.93;;;2.78;;
30000;SDS011;16845;48.670;9.000;2022-10-17T05:26:15;5.57;;;2.72;;
30000;SDS011;16845;48.670;9.000;2022-10-17T05:28:43;5.03;;;2.55;;
30000;SDS011;16845;48.670;9.000;2022-10-17T05:31:11;4.13;;;3.00;;
30000;SDS011;16845;48.670;9.000;2022-10-17T05:33:39;3.72;;;2.63;;
30000;SDS011;16845;48.670;9.000;2022-10-17T05:36:09;7.82;;;3.33;;
30000;SDS011;16845;48.670;9.000;2022-10-17T05:38:37;4.90;;;2.88;;
30000;SDS011;16845;48.670;9.000;2022-10-17T05:41:05;5.97;;;2.83;;
30000;SDS011;16845;48.670;9.000;2022-10-17T05:43:33;8.05;;;3.28;;
30000;SDS011;16845;48.670;9.000;2022-10-17T05:46:01;5.55;;;3.03;;
30000;SDS011;16845;48.670;9.000;2022-10-17T05:48:30;6.53;;;3.40;;
30000;SDS011;16845;48.670;9.000;2022-10-17T05:50:59;6.07;;;3.40;;
30000;SDS011;16845;48.670;9.000;2022-10-17T05:53:30;7.45;;;3.70;;
30000;SDS011;16845;48.670;9.000;2022-10-17T05:56:00;5.75;;;3.60;;
30000;SDS011;16845;48.670;9.000;2022-10-17T05:58:28;8.98;;;3.42;;
30000;SDS011;16845;48.670;9.000;2022-10-17T06:01:15;8.07;;;3.72;;
30000;SDS011;16845;48.670;9.000;2022-10-17T06:03:43;7.93;;;3.72;;
30000;SDS011;16845;48.670;9.000;2022-10-17T06:06:12;7.32;;;3.95;;
30000;SDS011;16845;48.670;9.000;2022-10-17T06:08:42;8.80;;;3.88;;
30000;SDS011;16845;48.670;9.000;2022-10-17T06:11:11;9.90;;;3.75;;
30000;SDS011;16845;48.670;9.000;2022-10-17T06:13:39;6.47;;;3.55;;
30000;SDS011;16845;48.670;9.000;2022-10-17T06:16:07;9.57;;;4.05;;
30000;SDS011;16845;48.670;9.000;2022-10-17T06:18:35;5.85;;;3.85;;
30000;SDS011;16845;48.670;9.000;2022-10-17T06:21:04;6.57;;;3.28;;
30000;SDS011;16845;48.670;9.000;2022-10-17T06:23:33;8.25;;;3.78;;
30000;SDS011;16845;48.670;9.000;2022-10-17T06:26:03;5.63;;;3.40;;
30000;SDS011;16845;48.670;9.000;2022-10-17T06:28:32;3.95;;;3.25;;
30000;SDS011;16845;48.670;9.000;2022-10-17T06:31:03;11.48;;;3.63;;
30000;SDS011;16845;48.670;9.000;2022-10-17T06:33:31;4.78;;;3.63;;
30000;SDS011;16845;48.670;9.000;2022-10-17T06:35:59;11.55;;;3.40;;
30000;SDS011;16845;48.670;9.000;2022-10-17T06:38:28;5.43;;;3.00;;
30000;SDS011;16845;48.670;9.000;2022-10-17T06:41:02;10.13;;;3.40;;
30000;SDS011;16845;48.670;9.000;2022-10-17T06:43:33;5.47;;;2.92;;
30000;SDS011;16845;48.670;9.000;2022-10-17T06:46:01;4.72;;;2.80;;
30000;SDS011;16845;48.670;9.000;2022-10-17T06:48:30;7.45;;;3.10;;
30000;SDS011;16845;48.670;9.000;2022-10-17T06:50:58;5.25;;;3.58;;
30000;SDS011;16845;48.670;9.000;2022-10-17T06:53:27;10.95;;;2.58;;
30000;SDS011;16845;48.670;9.000;2022-10-17T06:55:55;11.07;;;3.47;;
30000;SDS011;16845;48.670;9.000;2022-10-17T06:58:29;6.18;;;2.38;;
30000;SDS011;16845;48.670;9.000;2022-10-17T07:00:58;4.80;;;2.58;;
30000;SDS011;16845;48.670;9.000;2022-10-17T07:03:27;5.38;;;2.95;;
30000;SDS011;16845;48.670;9.000;2022-10-17T07:05:55;2.95;;;2.40;;
30000;SDS011;16845;48.670;9.000;2022-10-17T07:08:23;4.35;;;2.80;;
30000;SDS011;16845;48.670;9.000;2022-10-17T07:10:52;8.90;;;3.20;;
30000;SDS011;16845;48.670;9.000;2022-10-17T07:13:20;6.22;;;3.03;;
30000;SDS011;16845;48.670;9.000;2022-10-17T07:15:50;6.05;;;3.03;;
30000;SDS011;16845;48.670;9.000;2022-10-17T07:18:18;8.02;;;4.10;;
30000;SDS011;16845;48.670;9.000;2022-10-17T07:20:51;5.35;;;2.47;;
30000;SDS011;16845;48.670;9.000;2022-10-17T07:23:20;5.95;;;2.55;;
30000;SDS011;16845;48.670;9.000;2022-10-17T07:25:48;4.13;;;2.63;;
30000;SDS011;16845;48.670;9.000;2022-10-17T07:28:16;7.30;;;2.38;;
30000;SDS011;16845;48.670;9.000;2022-10-17T07:30:44;7.43;;;2.83;;
30000;SDS011;16845;48.670;9.000;2022-10-17T07:33:20;5.63;;;2.50;;
30000;SDS011;16845;48.670;9.000;2022-10-17T07:35:48;6.82;;;2.63;;
30000;SDS011;16845;48.670;9.000;2022-10-17T07:38:17;7.55;;;2.72;;
30000;SDS011;16845;48.670;9.000;2022-10-17T07:40:46;3.60;;;2.47;;
30000;SDS011;16845;48.670;9.000;2022-10-17T07:43:20;7.95;;;2.53;;
30000;SDS011;16845;48.670;9.000;2022-10-17T07:45:48;6.85;;;3.13;;
30000;SDS011;16845;48.670;9.000;2022-10-17T07:48:17;2.97;;;2.03;;
30000;SDS011;16845;48.670;9.000;2022-10-17T07:50:47;4.82;;;2.10;;
30000;SDS011;16845;48.670;9.000;2022-10-17T07:53:16;12.00;;;3.15;;
30000;SDS011;16845;48.670;9.000;2022-10-17T07:55:44;3.40;;;1.88;;
30000;SDS011;16845;48.670;9.000;2022-10-17T07:58:13;3.13;;;2.65;;
30000;SDS011;16845;48.670;9.000;2022-10-17T08:00:41;6.25;;;1.92;;
30000;SDS011;16845;48.670;9.000;2022-10-17T08:03:09;2.13;;;1.80;;
30000;SDS011;16845;48.670;9.000;2022-10-17T08:05:39;5.25;;;1.80;;
30000;SDS011;16845;48.670;9.000;2022-10-17T08:08:07;3.08;;;2.20;;
30000;SDS011;16845;48.670;9.000;2022-10-17T08:10:35;5.18;;;1.95;;
30000;SDS011;16845;48.670;9.000;2022-10-17T08:13:03;5.13;;;1.60;;
30000;SDS011;16845;48.670;9.000;2022-10-17T08:15:31;3.55;;;2.10;;
30000;SDS011;16845;48.670;9.000;2022-10-17T08:17:59;3.88;;;2.17;;
30000;SDS011;16845;48.670;9.000;2022-10-17T08:20:27;5.63;;;2.63;;
30000;SDS011;16845;48.670;9.000;2022-10-17T08:22:56;7.90;;;2.17;;
30000;SDS011;16845;48.670;9.000;2022-10-17T08:25:24;5.40;;;2.15;;
30000;SDS011;16845;48.670;9.000;2022-10-17T08:27:52;6.47;;;2.00;;
30000;SDS011;16845;48.670;9.000;2022-10-17T08:30:20;8.48;;;1.80;;
30000;SDS011;16845;48.670;9.000;2022-10-17T08:32:48;7.10;;;2.13;;
30000;SDS011;16845;48.670;9.000;2022-10-17T08:35:16;5.93;;;1.90;;
30000;SDS011;16845;48.670;9.000;2022-10-17T08:37:44;12.90;;;2.20;;
30000;SDS011;16845;48.670;9.000;2022-10-17T08:40:15;5.00;;;1.60;;
30000;SDS011;16845;48.670;9.000;2022-10-17T08:42:53;3.50;;;1.80;;
30000;SDS011;16845;48.670;9.000;2022-10-17T08:45:50;3.03;;;1.70;;
30000;SDS011;16845;48.670;9.000;2022-10-17T08:48:22;1.77;;;1.60;;
30000;SDS011;16845;48.670;9.000;2022-10-17T08:50:52;4.40;;;1.73;;
30000;SDS011;16845;48.670;9.000;2022-10-17T08:53:24;10.10;;;2.08;;
30000;SDS011;16845;48.670;9.000;2022-10-17T08:55:57;5.75;;;1.90;;
30000;SDS011;16845;48.670;9.000;2022-10-17T08:58:34;1.98;;;1.75;;
30000;SDS011;16845;48.670;9.000;2022-10-17T09:01:05;10.70;;;2.15;;
30000;SDS011;16845;48.670;9.000;2022-10-17T09:03:43;8.63;;;2.33;;
30000;SDS011;16845;48.670;9.000;2022-10-17T09:06:20;4.95;;;2.03;;
30000;SDS011;16845;48.670;9.000;2022-10-17T09:08:58;5.38;;;1.70;;
30000;SDS011;16845;48.670;9.000;2022-10-17T09:11:37;1.70;;;1.60;;
30000;SDS011;16845;48.670;9.000;2022-10-17T09:14:17;3.40;;;2.05;;
30000;SDS011;16845;48.670;9.000;2022-10-17T09:16:59;4.68;;;1.70;;
30000;SDS011;16845;48.670;9.000;2022-10-17T09:19:41;3.42;;;2.25;;
30000;SDS011;16845;48.670;9.000;2022-10-17T09:22:13;3.22;;;1.98;;
30000;SDS011;16845;48.670;9.000;2022-10-17T09:24:48;3.95;;;1.65;;
30000;SDS011;16845;48.670;9.000;2022-10-17T09:27:22;4.80;;;1.90;;
30000;SDS011;16845;48.670;9.000;2022-10-17T09:29:54;5.90;;;1.90;;
30000;SDS011;16845;48.670;9.000;2022-10-17T09:32:42;6.03;;;2.10;;
30000;SDS011;16845;48.670;9.000;2022-10-17T09:35:12;6.55;;;1.83;;
30000;SDS011;16845;48.670;9.000;2022-10-17T09:37:41;9.25;;;2.28;;
30000;SDS011;16845;48.670;9.000;2022-10-17T09:40:12;7.03;;;1.98;;
30000;SDS011;16845;48.670;9.000;2022-10-17T09:42:47;5.60;;;1.80;;
30000;SDS011;16845;48.670;9.000;2022-10-17T09:45:18;3.10;;;1.70;;
30000;SDS011;16845;48.670;9.000;2022-10-17T09:47:54;1.80;;;1.52;;
30000;SDS011;16845;48.670;9.000;2022-10-17T09:50:27;8.80;;;2.97;;
30000;SDS011;16845;48.670;9.000;2022-10-17T09:52:59;5.13;;;1.98;;
30000;SDS011;16845;48.670;9.000;2022-10-17T09:55:31;2.33;;;1.65;;
30000;SDS011;16845;48.670;9.000;2022-10-17T09:58:07;4.28;;;2.53;;
30000;SDS011;16845;48.670;9.000;2022-10-17T10:00:37;1.92;;;1.65;;
30000;SDS011;16845;48.670;9.000;2022-10-17T10:03:16;2.22;;;1.67;;
30000;SDS011;16845;48.670;9.000;2022-10-17T10:05:59;3.42;;;1.58;;
30000;SDS011;16845;48.670;9.000;2022-10-17T10:08:30;6.47;;;2.17;;
30000;SDS011;16845;48.670;9.000;2022-10-17T10:11:00;13.02;;;2.25;;
30000;SDS011;16845;48.670;9.000;2022-10-17T10:13:31;2.50;;;1.85;;
30000;SDS011;16845;48.670;9.000;2022-10-17T10:16:12;6.68;;;1.83;;
30000;SDS011;16845;48.670;9.000;2022-10-17T10:18:43;3.13;;;2.03;;
30000;SDS011;16845;48.670;9.000;2022-10-17T10:21:16;7.30;;;1.67;;
30000;SDS011;16845;48.670;9.000;2022-10-17T10:24:01;7.18;;;2.72;;
30000;SDS011;16845;48.670;9.000;2022-10-17T10:26:33;5.38;;;1.70;;
30000;SDS011;16845;48.670;9.000;2022-10-17T10:29:06;4.07;;;2.13;;
30000;SDS011;16845;48.670;9.000;2022-10-17T10:31:49;5.68;;;1.70;;
30000;SDS011;16845;48.670;9.000;2022-10-17T10:34:19;10.85;;;2.03;;
30000;SDS011;16845;48.670;9.000;2022-10-17T10:36:54;4.13;;;1.70;;
30000;SDS011;16845;48.670;9.000;2022-10-17T10:42:22;2.83;;;1.80;;
30000;SDS011;16845;48.670;9.000;2022-10-17T10:47:24;5.55;;;1.92;;
30000;SDS011;16845;48.670;9.000;2022-10-17T10:52:59;4.53;;;1.80;;
30000;SDS011;16845;48.670;9.000;2022-10-17T10:55:45;2.38;;;1.80;;
30000;SDS011;16845;48.670;9.000;2022-10-17T10:58:22;4.57;;;1.70;;
30000;SDS011;16845;48.670;9.000;2022-10-17T11:00:58;6.05;;;2.13;;
30000;SDS011;16845;48.670;9.000;2022-10-17T11:03:31;10.10;;;1.98;;
30000;SDS011;16845;48.670;9.000;2022-10-17T11:06:04;8.68;;;1.67;;
30000;SDS011;16845;48.670;9.000;2022-10-17T11:08:39;9.55;;;1.92;;
30000;SDS011;16845;48.670;9.000;2022-10-17T11:11:12;4.88;;;1.50;;
30000;SDS011;16845;48.670;9.000;2022-10-17T11:13:46;4.70;;;1.83;;
30000;SDS011;16845;48.670;9.000;2022-10-17T11:16:22;5.18;;;1.48;;
30000;SDS011;16845;48.670;9.000;2022-10-17T11:18:57;4.47;;;1.80;;
30000;SDS011;16845;48.670;9.000;2022-10-17T11:21:37;4.47;;;1.60;;
30000;SDS011;16845;48.670;9.000;2022-10-17T11:24:13;10.82;;;1.70;;
30000;SDS011;16845;48.670;9.000;2022-10-17T11:26:49;5.72;;;1.80;;
30000;SDS011;16845;48.670;9.000;2022-10-17T11:29:23;10.68;;;1.70;;
30000;SDS011;16845;48.670;9.000;2022-10-17T11:31:57;7.88;;;1.50;;
30000;SDS011;16845;48.670;9.000;2022-10-17T11:34:31;3.42;;;1.40;;
30000;SDS011;16845;48.670;9.000;2022-10-17T11:37:03;3.92;;;1.55;;
30000;SDS011;16845;48.670;9.000;2022-10-17T11:39:37;3.90;;;1.42;;
30000;SDS011;16845;48.670;9.000;2022-10-17T11:42:11;5.25;;;1.80;;
30000;SDS011;16845;48.670;9.000;2022-10-17T11:44:43;4.75;;;1.80;;
30000;SDS011;16845;48.670;9.000;2022-10-17T11:47:16;8.10;;;1.85;;
30000;SDS011;16845;48.670;9.000;2022-10-17T11:50:02;4.32;;;1.83;;
30000;SDS011;16845;48.670;9.000;2022-10-17T11:53:00;16.20;;;2.33;;
30000;SDS011;16845;48.670;9.000;2022-10-17T11:55:31;6.50;;;1.90;;
30000;SDS011;16845;48.670;9.000;2022-10-17T11:58:02;12.38;;;1.88;;
30000;SDS011;16845;48.670;9.000;2022-10-17T12:00:45;3.33;;;1.77;;
30000;SDS011;16845;48.670;9.000;2022-10-17T12:03:28;6.60;;;1.50;;
30000;SDS011;16845;48.670;9.000;2022-10-17T12:06:03;7.03;;;2.15;;
30000;SDS011;16845;48.670;9.000;2022-10-17T12:08:39;13.32;;;2.10;;
30000;SDS011;16845;48.670;9.000;2022-10-17T12:11:14;4.75;;;1.70;;
30000;SDS011;16845;48.670;9.000;2022-10-17T12:13:53;6.50;;;2.05;;
30000;SDS011;16845;48.670;9.000;2022-10-17T12:16:35;6.68;;;1.98;;
30000;SDS011;16845;48.670;9.000;2022-10-17T12:19:18;9.27;;;2.40;;
30000;SDS011;16845;48.670;9.000;2022-10-17T12:24:23;12.40;;;1.85;;
30000;SDS011;16845;48.670;9.000;2022-10-17T12:27:20;5.25;;;1.45;;
30000;SDS011;16845;48.670;9.000;2022-10-17T12:29:49;3.90;;;1.27;;
30000;SDS011;16845;48.670;9.000;2022-10-17T12:32:25;6.40;;;1.77;;
30000;SDS011;16845;48.670;9.000;2022-10-17T12:35:15;3.80;;;1.20;;
30000;SDS011;16845;48.670;9.000;2022-10-17T12:37:59;3.00;;;1.10;;
30000;SDS011;16845;48.670;9.000;2022-10-17T12:40:52;2.88;;;1.02;;
30000;SDS011;16845;48.670;9.000;2022-10-17T12:43:42;5.20;;;1.15;;
30000;SDS011;16845;48.670;9.000;2022-10-17T12:55:11;5.78;;;1.35;;
30000;SDS011;16845;48.670;9.000;2022-10-17T12:57:43;4.70;;;1.23;;
30000;SDS011;16845;48.670;9.000;2022-10-17T13:00:18;2.75;;;1.08;;
30000;SDS011;16845;48.670;9.000;2022-10-17T13:02:48;5.72;;;1.08;;
30000;SDS011;16845;48.670;9.000;2022-10-17T13:05:23;5.25;;;1.30;;
30000;SDS011;16845;48.670;9.000;2022-10-17T13:07:54;3.72;;;1.05;;
30000;SDS011;16845;48.670;9.000;2022-10-17T13:10:27;4.03;;;1.25;;
30000;SDS011;16845;48.670;9.000;2022-10-17T13:13:00;6.22;;;1.00;;
30000;SDS011;16845;48.670;9.000;2022-10-17T13:15:32;3.13;;;0.98;;
30000;SDS011;16845;48.670;9.000;2022-10-17T13:18:02;3.80;;;1.30;;
30000;SDS011;16845;48.670;9.000;2022-10-17T13:20:31;2.67;;;1.15;;
30000;SDS011;16845;48.670;9.000;2022-10-17T13:22:59;3.22;;;1.30;;
30000;SDS011;16845;48.670;9.000;2022-10-17T13:25:28;5.55;;;1.67;;
30000;SDS011;16845;48.670;9.000;2022-10-17T13:28:04;5.05;;;1.38;;
30000;SDS011;16845;48.670;9.000;2022-10-17T13:30:38;3.90;;;1.25;;
30000;SDS011;16845;48.670;9.000;2022-10-17T13:33:17;4.07;;;1.35;;
30000;SDS011;16845;48.670;9.000;2022-10-17T13:35:54;5.30;;;1.25;;
30000;SDS011;16845;48.670;9.000;2022-10-17T13:38:27;3.97;;;1.30;;
30000;SDS011;16845;48.670;9.000;2022-10-17T13:41:03;5.30;;;1.50;;
30000;SDS011;16845;48.670;9.000;2022-10-17T13:43:58;3.35;;;1.17;;
30000;SDS011;16845;48.670;9.000;2022-10-17T13:46:28;9.15;;;1.58;;
30000;SDS011;16845;48.670;9.000;2022-10-17T13:49:08;8.82;;;1.52;;
30000;SDS011;16845;48.670;9.000;2022-10-17T13:51:53;4.90;;;1.30;;
30000;SDS011;16845;48.670;9.000;2022-10-17T13:54:30;3.30;;;1.35;;
30000;SDS011;16845;48.670;9.000;2022-10-17T13:57:02;5.50;;;1.77;;
30000;SDS011;16845;48.670;9.000;2022-10-17T13:59:33;5.55;;;1.48;;
30000;SDS011;16845;48.670;9.000;2022-10-17T14:02:04;2.33;;;1.38;;
30000;SDS011;16845;48.670;9.000;2022-10-17T14:04:37;12.38;;;1.65;;
30000;SDS011;16845;48.670;9.000;2022-10-17T14:07:27;3.45;;;1.60;;
30000;SDS011;16845;48.670;9.000;2022-10-17T14:10:21;7.78;;;1.58;;
30000;SDS011;16845;48.670;9.000;2022-10-17T14:12:53;5.57;;;1.73;;
30000;SDS011;16845;48.670;9.000;2022-10-17T14:15:22;5.68;;;1.90;;
30000;SDS011;16845;48.670;9.000;2022-10-17T14:17:53;3.38;;;1.67;;
30000;SDS011;16845;48.670;9.000;2022-10-17T14:20:23;5.70;;;1.50;;
30000;SDS011;16845;48.670;9.000;2022-10-17T14:23:31;5.75;;;1.67;;
30000;SDS011;16845;48.670;9.000;2022-10-17T14:29:01;5.05;;;1.30;;
30000;SDS011;16845;48.670;9.000;2022-10-17T14:31:31;7.22;;;1.77;;
30000;SDS011;16845;48.670;9.000;2022-10-17T14:34:01;2.90;;;1.30;;
30000;SDS011;16845;48.670;9.000;2022-10-17T14:36:32;11.75;;;2.13;;
30000;SDS011;16845;48.670;9.000;2022-10-17T14:39:04;8.15;;;1.75;;
30000;SDS011;16845;48.670;9.000;2022-10-17T14:41:40;4.47;;;1.67;;
30000;SDS011;16845;48.670;9.000;2022-10-17T14:44:17;4.75;;;2.00;;
30000;SDS011;16845;48.670;9.000;2022-10-17T14:46:49;3.83;;;1.60;;
30000;SDS011;16845;48.670;9.000;2022-10-17T14:49:22;8.23;;;1.92;;
30000;SDS011;16845;48.670;9.000;2022-10-17T14:52:11;6.00;;;1.58;;
30000;SDS011;16845;48.670;9.000;2022-10-17T14:54:51;3.85;;;1.83;;
30000;SDS011;16845;48.670;9.000;2022-10-17T14:57:21;9.30;;;1.80;;
30000;SDS011;16845;48.670;9.000;2022-10-17T14:59:53;3.30;;;1.63;;
30000;SDS011;16845;48.670;9.000;2022-10-17T15:02:22;7.07;;;2.05;;
30000;SDS011;16845;48.670;9.000;2022-10-17T15:04:51;5.10;;;1.48;;
30000;SDS011;16845;48.670;9.000;2022-10-17T15:07:20;13.95;;;2.45;;
30000;SDS011;16845;48.670;9.000;2022-10-17T15:09:49;12.57;;;1.75;;
30000;SDS011;16845;48.670;9.000;2022-10-17T15:12:19;2.72;;;1.70;;
30000;SDS011;16845;48.670;9.000;2022-10-17T15:14:47;7.22;;;1.30;;
30000;SDS011;16845;48.670;9.000;2022-10-17T15:17:18;3.53;;;2.40;;
30000;SDS011;16845;48.670;9.000;2022-10-17T15:19:48;5.57;;;2.33;;
30000;SDS011;16845;48.670;9.000;2022-10-17T15:22:16;3.33;;;1.65;;
30000;SDS011;16845;48.670;9.000;2022-10-17T15:24:45;5.63;;;1.58;;
30000;SDS011;16845;48.670;9.000;2022-10-17T15:27:14;2.75;;;1.88;;
30000;SDS011;16845;48.670;9.000;2022-10-17T15:29:43;4.63;;;2.05;;
30000;SDS011;16845;48.670;9.000;2022-10-17T15:32:11;4.15;;;1.80;;
30000;SDS011;16845;48.670;9.000;2022-10-17T15:34:40;11.40;;;1.80;;
30000;SDS011;16845;48.670;9.000;2022-10-17T15:37:13;4.60;;;1.67;;
30000;SDS011;16845;48.670;9.000;2022-10-17T15:39:43;3.60;;;1.48;;
30000;SDS011;16845;48.670;9.000;2022-10-17T15:42:18;7.15;;;1.52;;